KROG

Rogers Executive - Carter Field Airport

Rogers, Arkansas, USA
METAR KROG 160058Z 35004KT 10SM CLR 08/04 A3016 RMK AO2 SLP221 T00780039
Observed Flight Rules
Dec-16 @ 00:58 UTC (59 minutes ago) Visual Flight Rules
Wind Visibility Clouds
350° at 4 knots 10 miles
  • Clear skies
Temperatures Readings
Current 8°C / 46°F
Dewpoint 4°C / 39°F
Humidity 76%
Altimeter 30.16" Hg
Pressure 1022.1 hPa
Elevation 415
METAR KROG 160058Z 35004KT 10SM CLR 08/04 A3016 RMK AO2 SLP221 T00780039
Observed Flight Rules
Dec-16 @ 00:58 UTC
(59 minutes ago)
VFR
Wind Visibility
350° at 4 knots 10 miles
Clouds
  • Clear skies
Temperature Dewpoint
8°C / 46°F 4°C / 39°F
Humidity Altimeter Pressure
76% 30.16" Hg 1022.1 hPa